sensor_id;sensor_type;location;lat;lon;timestamp;P1;durP1;ratioP1;P2;durP2;ratioP2
50301;SDS011;36550;50.472;19.744;2023-01-30T00:00:05;43.10;;;19.10;;
50301;SDS011;36550;50.472;19.744;2023-01-30T00:02:49;48.90;;;19.60;;
50301;SDS011;36550;50.472;19.744;2023-01-30T00:05:33;45.40;;;18.80;;
50301;SDS011;36550;50.472;19.744;2023-01-30T00:08:18;43.10;;;17.70;;
50301;SDS011;36550;50.472;19.744;2023-01-30T00:11:03;35.40;;;17.20;;
50301;SDS011;36550;50.472;19.744;2023-01-30T00:13:49;39.30;;;17.10;;
50301;SDS011;36550;50.472;19.744;2023-01-30T00:16:33;40.00;;;17.40;;
50301;SDS011;36550;50.472;19.744;2023-01-30T00:19:17;40.00;;;17.60;;
50301;SDS011;36550;50.472;19.744;2023-01-30T00:22:01;43.20;;;17.30;;
50301;SDS011;36550;50.472;19.744;2023-01-30T00:24:45;36.70;;;16.80;;
50301;SDS011;36550;50.472;19.744;2023-01-30T00:27:29;41.70;;;17.60;;
50301;SDS011;36550;50.472;19.744;2023-01-30T00:30:13;36.30;;;16.80;;
50301;SDS011;36550;50.472;19.744;2023-01-30T00:32:57;39.00;;;17.00;;
50301;SDS011;36550;50.472;19.744;2023-01-30T00:35:45;38.30;;;17.40;;
50301;SDS011;36550;50.472;19.744;2023-01-30T00:38:30;40.70;;;17.00;;
50301;SDS011;36550;50.472;19.744;2023-01-30T00:41:15;40.10;;;16.70;;
50301;SDS011;36550;50.472;19.744;2023-01-30T00:43:59;38.70;;;16.20;;
50301;SDS011;36550;50.472;19.744;2023-01-30T00:47:02;37.10;;;17.00;;
50301;SDS011;36550;50.472;19.744;2023-01-30T00:49:51;34.50;;;16.20;;
50301;SDS011;36550;50.472;19.744;2023-01-30T00:52:34;37.70;;;15.60;;
50301;SDS011;36550;50.472;19.744;2023-01-30T00:55:18;36.80;;;16.10;;
50301;SDS011;36550;50.472;19.744;2023-01-30T00:58:02;34.70;;;15.70;;
50301;SDS011;36550;50.472;19.744;2023-01-30T01:00:46;40.30;;;17.50;;
50301;SDS011;36550;50.472;19.744;2023-01-30T01:03:31;36.90;;;15.50;;
50301;SDS011;36550;50.472;19.744;2023-01-30T01:06:15;35.80;;;16.00;;
50301;SDS011;36550;50.472;19.744;2023-01-30T01:08:59;29.80;;;13.40;;
50301;SDS011;36550;50.472;19.744;2023-01-30T01:11:43;30.70;;;14.20;;
50301;SDS011;36550;50.472;19.744;2023-01-30T01:14:27;32.20;;;15.60;;
50301;SDS011;36550;50.472;19.744;2023-01-30T01:17:12;35.00;;;16.50;;
50301;SDS011;36550;50.472;19.744;2023-01-30T01:19:56;35.40;;;15.80;;
50301;SDS011;36550;50.472;19.744;2023-01-30T01:22:39;28.80;;;14.00;;
50301;SDS011;36550;50.472;19.744;2023-01-30T01:25:24;35.80;;;16.10;;
50301;SDS011;36550;50.472;19.744;2023-01-30T01:28:08;33.50;;;15.60;;
50301;SDS011;36550;50.472;19.744;2023-01-30T01:30:52;34.90;;;15.20;;
50301;SDS011;36550;50.472;19.744;2023-01-30T01:33:36;33.80;;;15.70;;
50301;SDS011;36550;50.472;19.744;2023-01-30T01:36:20;30.20;;;13.90;;
50301;SDS011;36550;50.472;19.744;2023-01-30T01:39:04;32.00;;;13.90;;
50301;SDS011;36550;50.472;19.744;2023-01-30T01:41:49;31.20;;;14.00;;
50301;SDS011;36550;50.472;19.744;2023-01-30T01:44:54;34.90;;;14.50;;
50301;SDS011;36550;50.472;19.744;2023-01-30T01:53:43;38.50;;;14.90;;
50301;SDS011;36550;50.472;19.744;2023-01-30T01:56:32;28.00;;;12.90;;
50301;SDS011;36550;50.472;19.744;2023-01-30T01:59:20;31.60;;;13.70;;
50301;SDS011;36550;50.472;19.744;2023-01-30T02:02:09;27.80;;;12.40;;
50301;SDS011;36550;50.472;19.744;2023-01-30T02:04:57;28.40;;;11.90;;
50301;SDS011;36550;50.472;19.744;2023-01-30T02:13:40;32.00;;;13.50;;
50301;SDS011;36550;50.472;19.744;2023-01-30T02:16:24;28.00;;;13.10;;
50301;SDS011;36550;50.472;19.744;2023-01-30T02:19:15;29.40;;;12.90;;
50301;SDS011;36550;50.472;19.744;2023-01-30T02:22:52;31.60;;;13.60;;
50301;SDS011;36550;50.472;19.744;2023-01-30T02:25:56;26.30;;;12.20;;
50301;SDS011;36550;50.472;19.744;2023-01-30T02:38:15;21.80;;;10.50;;
50301;SDS011;36550;50.472;19.744;2023-01-30T02:41:15;20.60;;;10.10;;
50301;SDS011;36550;50.472;19.744;2023-01-30T02:47:27;19.60;;;10.50;;
50301;SDS011;36550;50.472;19.744;2023-01-30T02:50:18;20.80;;;8.90;;
50301;SDS011;36550;50.472;19.744;2023-01-30T02:53:08;17.30;;;7.60;;
50301;SDS011;36550;50.472;19.744;2023-01-30T02:55:52;16.50;;;8.40;;
50301;SDS011;36550;50.472;19.744;2023-01-30T02:58:38;18.40;;;8.80;;
50301;SDS011;36550;50.472;19.744;2023-01-30T03:04:51;16.80;;;8.60;;
50301;SDS011;36550;50.472;19.744;2023-01-30T03:07:55;22.70;;;9.50;;
50301;SDS011;36550;50.472;19.744;2023-01-30T03:11:01;17.90;;;8.60;;
50301;SDS011;36550;50.472;19.744;2023-01-30T03:13:51;17.60;;;8.50;;
50301;SDS011;36550;50.472;19.744;2023-01-30T03:16:40;20.80;;;9.20;;
50301;SDS011;36550;50.472;19.744;2023-01-30T03:19:24;17.90;;;9.20;;
50301;SDS011;36550;50.472;19.744;2023-01-30T03:22:11;21.50;;;9.90;;
50301;SDS011;36550;50.472;19.744;2023-01-30T03:24:55;20.20;;;8.70;;
50301;SDS011;36550;50.472;19.744;2023-01-30T03:27:39;20.30;;;9.70;;
50301;SDS011;36550;50.472;19.744;2023-01-30T03:30:24;19.60;;;9.00;;
50301;SDS011;36550;50.472;19.744;2023-01-30T03:33:09;18.20;;;9.40;;
50301;SDS011;36550;50.472;19.744;2023-01-30T03:35:53;22.30;;;9.10;;
50301;SDS011;36550;50.472;19.744;2023-01-30T03:38:37;22.40;;;10.40;;
50301;SDS011;36550;50.472;19.744;2023-01-30T03:41:21;20.10;;;10.10;;
50301;SDS011;36550;50.472;19.744;2023-01-30T03:44:05;20.80;;;9.30;;
50301;SDS011;36550;50.472;19.744;2023-01-30T03:46:49;20.10;;;9.50;;
50301;SDS011;36550;50.472;19.744;2023-01-30T03:49:33;21.40;;;9.70;;
50301;SDS011;36550;50.472;19.744;2023-01-30T03:52:17;18.80;;;10.00;;
50301;SDS011;36550;50.472;19.744;2023-01-30T03:55:01;22.00;;;9.90;;
50301;SDS011;36550;50.472;19.744;2023-01-30T03:57:45;20.90;;;9.40;;
50301;SDS011;36550;50.472;19.744;2023-01-30T04:00:29;21.70;;;9.80;;
50301;SDS011;36550;50.472;19.744;2023-01-30T04:03:13;21.70;;;10.40;;
50301;SDS011;36550;50.472;19.744;2023-01-30T04:05:58;20.70;;;9.80;;
50301;SDS011;36550;50.472;19.744;2023-01-30T04:08:41;24.40;;;10.50;;
50301;SDS011;36550;50.472;19.744;2023-01-30T04:11:26;26.80;;;11.40;;
50301;SDS011;36550;50.472;19.744;2023-01-30T04:14:10;20.60;;;10.70;;
50301;SDS011;36550;50.472;19.744;2023-01-30T04:16:54;23.20;;;10.10;;
50301;SDS011;36550;50.472;19.744;2023-01-30T04:19:37;24.80;;;10.60;;
50301;SDS011;36550;50.472;19.744;2023-01-30T04:22:21;22.30;;;10.30;;
50301;SDS011;36550;50.472;19.744;2023-01-30T04:25:05;23.50;;;10.70;;
50301;SDS011;36550;50.472;19.744;2023-01-30T04:27:49;22.00;;;10.90;;
50301;SDS011;36550;50.472;19.744;2023-01-30T04:30:33;22.70;;;10.30;;
50301;SDS011;36550;50.472;19.744;2023-01-30T04:33:16;22.30;;;10.40;;
50301;SDS011;36550;50.472;19.744;2023-01-30T04:36:01;23.20;;;10.50;;
50301;SDS011;36550;50.472;19.744;2023-01-30T04:38:47;22.30;;;11.20;;
50301;SDS011;36550;50.472;19.744;2023-01-30T04:41:30;21.20;;;9.90;;
50301;SDS011;36550;50.472;19.744;2023-01-30T04:44:14;18.90;;;9.00;;
50301;SDS011;36550;50.472;19.744;2023-01-30T04:46:58;20.50;;;10.00;;
50301;SDS011;36550;50.472;19.744;2023-01-30T04:49:42;23.00;;;10.80;;
50301;SDS011;36550;50.472;19.744;2023-01-30T04:52:26;18.20;;;9.20;;
50301;SDS011;36550;50.472;19.744;2023-01-30T04:55:09;20.70;;;9.60;;
50301;SDS011;36550;50.472;19.744;2023-01-30T04:57:53;21.40;;;9.50;;
50301;SDS011;36550;50.472;19.744;2023-01-30T05:00:37;23.40;;;9.40;;
50301;SDS011;36550;50.472;19.744;2023-01-30T05:03:22;22.80;;;9.10;;
50301;SDS011;36550;50.472;19.744;2023-01-30T05:06:06;17.90;;;8.00;;
50301;SDS011;36550;50.472;19.744;2023-01-30T05:08:50;17.50;;;7.40;;
50301;SDS011;36550;50.472;19.744;2023-01-30T05:11:36;18.40;;;9.20;;
50301;SDS011;36550;50.472;19.744;2023-01-30T05:14:20;18.00;;;8.70;;
50301;SDS011;36550;50.472;19.744;2023-01-30T05:17:04;20.50;;;8.90;;
50301;SDS011;36550;50.472;19.744;2023-01-30T05:19:47;16.40;;;8.20;;
50301;SDS011;36550;50.472;19.744;2023-01-30T05:22:31;19.00;;;8.40;;
50301;SDS011;36550;50.472;19.744;2023-01-30T05:25:15;22.50;;;8.40;;
50301;SDS011;36550;50.472;19.744;2023-01-30T05:27:59;20.50;;;8.90;;
50301;SDS011;36550;50.472;19.744;2023-01-30T05:30:43;16.10;;;7.90;;
50301;SDS011;36550;50.472;19.744;2023-01-30T05:33:27;21.80;;;9.10;;
50301;SDS011;36550;50.472;19.744;2023-01-30T05:36:12;19.70;;;8.60;;
50301;SDS011;36550;50.472;19.744;2023-01-30T05:38:58;16.70;;;8.20;;
50301;SDS011;36550;50.472;19.744;2023-01-30T05:41:41;17.00;;;8.20;;
50301;SDS011;36550;50.472;19.744;2023-01-30T05:44:25;18.10;;;8.80;;
50301;SDS011;36550;50.472;19.744;2023-01-30T05:47:09;19.10;;;9.20;;
50301;SDS011;36550;50.472;19.744;2023-01-30T05:49:52;21.30;;;10.10;;
50301;SDS011;36550;50.472;19.744;2023-01-30T05:52:36;19.60;;;9.50;;
50301;SDS011;36550;50.472;19.744;2023-01-30T05:55:20;19.10;;;9.00;;
50301;SDS011;36550;50.472;19.744;2023-01-30T05:58:04;21.90;;;9.60;;
50301;SDS011;36550;50.472;19.744;2023-01-30T06:00:47;20.10;;;10.00;;
50301;SDS011;36550;50.472;19.744;2023-01-30T06:03:32;21.20;;;10.40;;
50301;SDS011;36550;50.472;19.744;2023-01-30T06:06:16;22.40;;;10.70;;
50301;SDS011;36550;50.472;19.744;2023-01-30T06:09:00;19.50;;;9.60;;
50301;SDS011;36550;50.472;19.744;2023-01-30T06:11:44;20.40;;;9.60;;
50301;SDS011;36550;50.472;19.744;2023-01-30T06:14:28;19.80;;;9.30;;
50301;SDS011;36550;50.472;19.744;2023-01-30T06:17:12;19.50;;;9.20;;
50301;SDS011;36550;50.472;19.744;2023-01-30T06:19:56;22.20;;;10.30;;
50301;SDS011;36550;50.472;19.744;2023-01-30T06:22:39;21.90;;;10.30;;
50301;SDS011;36550;50.472;19.744;2023-01-30T06:25:23;20.90;;;10.70;;
50301;SDS011;36550;50.472;19.744;2023-01-30T06:28:07;24.80;;;11.20;;
50301;SDS011;36550;50.472;19.744;2023-01-30T06:30:51;27.50;;;11.40;;
50301;SDS011;36550;50.472;19.744;2023-01-30T06:33:35;20.60;;;10.20;;
50301;SDS011;36550;50.472;19.744;2023-01-30T06:36:19;23.20;;;10.60;;
50301;SDS011;36550;50.472;19.744;2023-01-30T06:39:03;23.70;;;10.20;;
50301;SDS011;36550;50.472;19.744;2023-01-30T06:41:47;27.20;;;11.60;;
50301;SDS011;36550;50.472;19.744;2023-01-30T06:44:31;23.20;;;11.70;;
50301;SDS011;36550;50.472;19.744;2023-01-30T06:47:15;24.50;;;11.60;;
50301;SDS011;36550;50.472;19.744;2023-01-30T06:49:59;23.90;;;10.90;;
50301;SDS011;36550;50.472;19.744;2023-01-30T06:52:43;22.50;;;11.10;;
50301;SDS011;36550;50.472;19.744;2023-01-30T06:55:29;23.40;;;10.60;;
50301;SDS011;36550;50.472;19.744;2023-01-30T06:58:13;20.90;;;10.10;;
50301;SDS011;36550;50.472;19.744;2023-01-30T07:00:57;21.40;;;11.10;;
50301;SDS011;36550;50.472;19.744;2023-01-30T07:03:41;23.40;;;10.70;;
50301;SDS011;36550;50.472;19.744;2023-01-30T07:06:26;20.50;;;9.70;;
50301;SDS011;36550;50.472;19.744;2023-01-30T07:09:09;24.90;;;11.20;;
50301;SDS011;36550;50.472;19.744;2023-01-30T07:11:54;26.20;;;11.60;;
50301;SDS011;36550;50.472;19.744;2023-01-30T07:14:37;25.10;;;11.30;;
50301;SDS011;36550;50.472;19.744;2023-01-30T07:17:21;22.80;;;11.60;;
50301;SDS011;36550;50.472;19.744;2023-01-30T07:20:06;19.50;;;9.90;;
50301;SDS011;36550;50.472;19.744;2023-01-30T07:22:50;24.60;;;11.30;;
50301;SDS011;36550;50.472;19.744;2023-01-30T07:25:38;24.70;;;11.70;;
50301;SDS011;36550;50.472;19.744;2023-01-30T07:28:22;25.60;;;11.80;;
50301;SDS011;36550;50.472;19.744;2023-01-30T07:31:06;26.20;;;12.60;;
50301;SDS011;36550;50.472;19.744;2023-01-30T07:33:50;23.20;;;11.60;;
50301;SDS011;36550;50.472;19.744;2023-01-30T07:36:34;22.60;;;11.50;;
50301;SDS011;36550;50.472;19.744;2023-01-30T07:39:18;24.10;;;12.00;;
50301;SDS011;36550;50.472;19.744;2023-01-30T07:42:02;23.40;;;12.10;;
50301;SDS011;36550;50.472;19.744;2023-01-30T07:44:47;22.30;;;11.80;;
50301;SDS011;36550;50.472;19.744;2023-01-30T07:47:31;23.60;;;11.10;;
50301;SDS011;36550;50.472;19.744;2023-01-30T07:50:15;22.90;;;12.20;;
50301;SDS011;36550;50.472;19.744;2023-01-30T07:53:01;24.50;;;11.70;;
50301;SDS011;36550;50.472;19.744;2023-01-30T07:55:49;20.40;;;11.20;;
50301;SDS011;36550;50.472;19.744;2023-01-30T07:58:33;23.30;;;11.60;;
50301;SDS011;36550;50.472;19.744;2023-01-30T08:01:18;24.30;;;11.60;;
50301;SDS011;36550;50.472;19.744;2023-01-30T08:04:01;22.90;;;11.80;;
50301;SDS011;36550;50.472;19.744;2023-01-30T08:06:46;25.90;;;13.10;;
50301;SDS011;36550;50.472;19.744;2023-01-30T08:09:29;27.40;;;12.40;;
50301;SDS011;36550;50.472;19.744;2023-01-30T08:12:14;25.90;;;12.20;;
50301;SDS011;36550;50.472;19.744;2023-01-30T08:14:57;24.30;;;11.80;;
50301;SDS011;36550;50.472;19.744;2023-01-30T08:17:41;23.00;;;12.10;;
50301;SDS011;36550;50.472;19.744;2023-01-30T08:20:26;24.30;;;11.90;;
50301;SDS011;36550;50.472;19.744;2023-01-30T08:23:10;26.20;;;12.50;;
50301;SDS011;36550;50.472;19.744;2023-01-30T08:25:55;24.50;;;12.10;;
50301;SDS011;36550;50.472;19.744;2023-01-30T08:28:41;23.40;;;11.80;;
50301;SDS011;36550;50.472;19.744;2023-01-30T08:31:25;24.50;;;12.00;;
50301;SDS011;36550;50.472;19.744;2023-01-30T08:34:09;25.50;;;12.70;;
50301;SDS011;36550;50.472;19.744;2023-01-30T08:36:53;23.90;;;12.40;;
50301;SDS011;36550;50.472;19.744;2023-01-30T08:39:37;26.10;;;12.20;;
50301;SDS011;36550;50.472;19.744;2023-01-30T08:42:21;26.60;;;12.30;;
50301;SDS011;36550;50.472;19.744;2023-01-30T08:45:05;21.70;;;12.30;;
50301;SDS011;36550;50.472;19.744;2023-01-30T08:47:49;24.20;;;12.20;;
50301;SDS011;36550;50.472;19.744;2023-01-30T08:50:33;24.90;;;11.90;;
50301;SDS011;36550;50.472;19.744;2023-01-30T08:53:17;24.70;;;12.20;;
50301;SDS011;36550;50.472;19.744;2023-01-30T08:56:02;27.30;;;11.20;;
50301;SDS011;36550;50.472;19.744;2023-01-30T08:58:47;26.90;;;11.10;;
50301;SDS011;36550;50.472;19.744;2023-01-30T09:01:31;26.90;;;11.90;;
50301;SDS011;36550;50.472;19.744;2023-01-30T09:04:15;23.80;;;10.70;;
50301;SDS011;36550;50.472;19.744;2023-01-30T09:06:59;28.90;;;11.20;;
50301;SDS011;36550;50.472;19.744;2023-01-30T09:09:43;23.70;;;12.00;;
50301;SDS011;36550;50.472;19.744;2023-01-30T09:12:29;21.40;;;11.00;;
50301;SDS011;36550;50.472;19.744;2023-01-30T09:15:12;25.70;;;11.30;;
50301;SDS011;36550;50.472;19.744;2023-01-30T09:17:56;23.40;;;11.60;;
50301;SDS011;36550;50.472;19.744;2023-01-30T09:20:42;22.20;;;11.00;;
50301;SDS011;36550;50.472;19.744;2023-01-30T09:23:26;21.60;;;11.00;;
50301;SDS011;36550;50.472;19.744;2023-01-30T09:26:09;22.70;;;11.50;;
50301;SDS011;36550;50.472;19.744;2023-01-30T09:28:53;23.70;;;11.80;;
50301;SDS011;36550;50.472;19.744;2023-01-30T09:31:37;23.50;;;11.00;;
50301;SDS011;36550;50.472;19.744;2023-01-30T09:34:22;25.50;;;12.10;;
50301;SDS011;36550;50.472;19.744;2023-01-30T09:37:11;22.20;;;11.30;;
50301;SDS011;36550;50.472;19.744;2023-01-30T09:39:55;26.50;;;12.00;;
50301;SDS011;36550;50.472;19.744;2023-01-30T09:48:24;23.40;;;12.30;;
50301;SDS011;36550;50.472;19.744;2023-01-30T09:54:19;22.90;;;11.70;;
50301;SDS011;36550;50.472;19.744;2023-01-30T09:57:19;21.90;;;12.10;;
50301;SDS011;36550;50.472;19.744;2023-01-30T10:00:05;24.00;;;12.70;;
50301;SDS011;36550;50.472;19.744;2023-01-30T10:05:48;20.70;;;11.60;;
50301;SDS011;36550;50.472;19.744;2023-01-30T10:08:49;20.10;;;11.50;;
50301;SDS011;36550;50.472;19.744;2023-01-30T10:23:49;23.80;;;12.10;;
50301;SDS011;36550;50.472;19.744;2023-01-30T10:26:43;21.90;;;12.00;;
50301;SDS011;36550;50.472;19.744;2023-01-30T10:29:32;19.20;;;10.70;;
50301;SDS011;36550;50.472;19.744;2023-01-30T10:32:38;22.30;;;12.20;;
50301;SDS011;36550;50.472;19.744;2023-01-30T10:35:31;22.50;;;11.70;;
50301;SDS011;36550;50.472;19.744;2023-01-30T10:38:25;20.30;;;11.90;;
50301;SDS011;36550;50.472;19.744;2023-01-30T10:41:23;24.90;;;11.80;;
50301;SDS011;36550;50.472;19.744;2023-01-30T10:44:12;25.00;;;12.50;;
50301;SDS011;36550;50.472;19.744;2023-01-30T10:50:10;23.40;;;12.60;;
50301;SDS011;36550;50.472;19.744;2023-01-30T10:53:03;23.00;;;11.90;;
50301;SDS011;36550;50.472;19.744;2023-01-30T10:56:19;25.80;;;12.80;;
50301;SDS011;36550;50.472;19.744;2023-01-30T10:59:26;22.60;;;12.90;;
50301;SDS011;36550;50.472;19.744;2023-01-30T11:05:29;22.90;;;12.00;;
50301;SDS011;36550;50.472;19.744;2023-01-30T11:08:25;24.30;;;12.60;;
50301;SDS011;36550;50.472;19.744;2023-01-30T11:14:12;20.20;;;11.30;;
50301;SDS011;36550;50.472;19.744;2023-01-30T11:16:56;22.50;;;12.90;;
50301;SDS011;36550;50.472;19.744;2023-01-30T11:19:41;25.60;;;13.30;;
50301;SDS011;36550;50.472;19.744;2023-01-30T11:22:25;25.70;;;13.00;;
50301;SDS011;36550;50.472;19.744;2023-01-30T11:25:14;24.70;;;13.20;;
50301;SDS011;36550;50.472;19.744;2023-01-30T11:28:02;27.40;;;12.80;;
50301;SDS011;36550;50.472;19.744;2023-01-30T11:30:56;22.60;;;11.90;;
50301;SDS011;36550;50.472;19.744;2023-01-30T11:33:42;24.60;;;12.90;;
50301;SDS011;36550;50.472;19.744;2023-01-30T11:36:27;24.50;;;12.90;;
50301;SDS011;36550;50.472;19.744;2023-01-30T11:41:58;24.60;;;12.50;;
50301;SDS011;36550;50.472;19.744;2023-01-30T11:44:45;26.40;;;13.00;;
50301;SDS011;36550;50.472;19.744;2023-01-30T11:47:29;25.00;;;12.20;;
50301;SDS011;36550;50.472;19.744;2023-01-30T11:50:16;24.50;;;12.40;;
50301;SDS011;36550;50.472;19.744;2023-01-30T11:53:02;24.90;;;12.70;;
50301;SDS011;36550;50.472;19.744;2023-01-30T11:55:58;23.50;;;12.90;;
50301;SDS011;36550;50.472;19.744;2023-01-30T11:58:50;23.20;;;11.90;;
50301;SDS011;36550;50.472;19.744;2023-01-30T12:01:41;27.20;;;14.30;;
50301;SDS011;36550;50.472;19.744;2023-01-30T12:04:25;23.90;;;12.30;;
50301;SDS011;36550;50.472;19.744;2023-01-30T12:07:15;22.60;;;12.80;;
50301;SDS011;36550;50.472;19.744;2023-01-30T12:10:46;23.30;;;13.40;;
50301;SDS011;36550;50.472;19.744;2023-01-30T12:13:16;27.70;;;13.30;;
50301;SDS011;36550;50.472;19.744;2023-01-30T12:16:22;28.80;;;15.50;;
50301;SDS011;36550;50.472;19.744;2023-01-30T12:19:33;22.50;;;12.50;;
50301;SDS011;36550;50.472;19.744;2023-01-30T12:22:40;27.70;;;15.30;;
50301;SDS011;36550;50.472;19.744;2023-01-30T12:25:32;27.80;;;15.20;;
50301;SDS011;36550;50.472;19.744;2023-01-30T12:31:40;24.10;;;13.40;;
50301;SDS011;36550;50.472;19.744;2023-01-30T12:34:29;29.00;;;14.70;;
50301;SDS011;36550;50.472;19.744;2023-01-30T12:37:28;29.60;;;15.60;;
50301;SDS011;36550;50.472;19.744;2023-01-30T12:46:57;33.10;;;15.60;;
50301;SDS011;36550;50.472;19.744;2023-01-30T12:49:54;22.90;;;12.50;;
50301;SDS011;36550;50.472;19.744;2023-01-30T12:53:00;35.50;;;16.30;;
50301;SDS011;36550;50.472;19.744;2023-01-30T12:56:09;26.90;;;13.70;;
50301;SDS011;36550;50.472;19.744;2023-01-30T12:59:21;22.50;;;10.70;;
50301;SDS011;36550;50.472;19.744;2023-01-30T13:05:45;26.30;;;11.80;;
50301;SDS011;36550;50.472;19.744;2023-01-30T13:20:49;20.60;;;9.10;;
50301;SDS011;36550;50.472;19.744;2023-01-30T13:23:51;24.40;;;12.60;;
50301;SDS011;36550;50.472;19.744;2023-01-30T13:26:44;25.90;;;11.80;;
50301;SDS011;36550;50.472;19.744;2023-01-30T13:29:30;23.60;;;12.40;;
50301;SDS011;36550;50.472;19.744;2023-01-30T13:32:29;25.40;;;13.60;;
50301;SDS011;36550;50.472;19.744;2023-01-30T13:35:31;23.20;;;10.60;;
50301;SDS011;36550;50.472;19.744;2023-01-30T13:38:20;25.90;;;13.00;;
50301;SDS011;36550;50.472;19.744;2023-01-30T13:41:08;20.40;;;11.40;;
50301;SDS011;36550;50.472;19.744;2023-01-30T13:43:55;21.80;;;11.50;;
50301;SDS011;36550;50.472;19.744;2023-01-30T13:46:40;20.80;;;10.20;;
50301;SDS011;36550;50.472;19.744;2023-01-30T13:49:28;21.50;;;11.50;;
50301;SDS011;36550;50.472;19.744;2023-01-30T13:52:22;19.40;;;10.90;;
50301;SDS011;36550;50.472;19.744;2023-01-30T13:58:39;34.00;;;15.20;;
50301;SDS011;36550;50.472;19.744;2023-01-30T14:04:43;165.80;;;52.50;;
50301;SDS011;36550;50.472;19.744;2023-01-30T14:10:25;119.00;;;41.90;;
50301;SDS011;36550;50.472;19.744;2023-01-30T14:13:11;53.20;;;20.50;;
50301;SDS011;36550;50.472;19.744;2023-01-30T14:16:01;39.90;;;17.00;;
50301;SDS011;36550;50.472;19.744;2023-01-30T14:18:47;42.00;;;18.90;;
50301;SDS011;36550;50.472;19.744;2023-01-30T14:21:31;28.50;;;14.80;;
50301;SDS011;36550;50.472;19.744;2023-01-30T14:24:18;29.90;;;14.90;;
50301;SDS011;36550;50.472;19.744;2023-01-30T14:27:20;25.50;;;12.80;;
50301;SDS011;36550;50.472;19.744;2023-01-30T14:30:35;29.70;;;14.40;;
50301;SDS011;36550;50.472;19.744;2023-01-30T14:42:23;28.40;;;14.40;;
50301;SDS011;36550;50.472;19.744;2023-01-30T14:45:15;30.30;;;14.70;;
50301;SDS011;36550;50.472;19.744;2023-01-30T14:51:09;28.80;;;14.10;;
50301;SDS011;36550;50.472;19.744;2023-01-30T15:00:05;45.90;;;21.50;;
50301;SDS011;36550;50.472;19.744;2023-01-30T15:03:06;36.70;;;17.40;;
50301;SDS011;36550;50.472;19.744;2023-01-30T15:05:59;32.50;;;16.20;;
50301;SDS011;36550;50.472;19.744;2023-01-30T15:08:43;42.30;;;18.30;;
50301;SDS011;36550;50.472;19.744;2023-01-30T15:11:29;29.80;;;14.90;;
50301;SDS011;36550;50.472;19.744;2023-01-30T15:14:21;32.00;;;13.80;;
50301;SDS011;36550;50.472;19.744;2023-01-30T15:17:19;34.70;;;17.20;;
50301;SDS011;36550;50.472;19.744;2023-01-30T15:20:18;41.40;;;18.30;;
50301;SDS011;36550;50.472;19.744;2023-01-30T15:23:36;35.00;;;15.80;;
50301;SDS011;36550;50.472;19.744;2023-01-30T15:32:36;31.20;;;14.20;;
50301;SDS011;36550;50.472;19.744;2023-01-30T15:35:21;32.30;;;14.90;;
50301;SDS011;36550;50.472;19.744;2023-01-30T15:38:21;35.80;;;16.80;;
50301;SDS011;36550;50.472;19.744;2023-01-30T15:41:07;37.60;;;17.60;;
50301;SDS011;36550;50.472;19.744;2023-01-30T15:47:15;33.60;;;14.40;;
50301;SDS011;36550;50.472;19.744;2023-01-30T15:50:09;33.10;;;15.10;;
50301;SDS011;36550;50.472;19.744;2023-01-30T15:52:54;38.60;;;18.30;;
50301;SDS011;36550;50.472;19.744;2023-01-30T15:55:40;32.20;;;15.30;;
50301;SDS011;36550;50.472;19.744;2023-01-30T15:58:26;35.10;;;16.50;;
50301;SDS011;36550;50.472;19.744;2023-01-30T16:01:11;36.50;;;16.40;;
50301;SDS011;36550;50.472;19.744;2023-01-30T16:04:01;36.60;;;16.50;;
50301;SDS011;36550;50.472;19.744;2023-01-30T16:06:50;37.70;;;15.10;;
50301;SDS011;36550;50.472;19.744;2023-01-30T16:09:34;39.80;;;16.70;;
50301;SDS011;36550;50.472;19.744;2023-01-30T16:12:24;37.90;;;16.20;;
50301;SDS011;36550;50.472;19.744;2023-01-30T16:15:17;45.60;;;19.50;;
50301;SDS011;36550;50.472;19.744;2023-01-30T16:21:14;38.70;;;17.60;;
50301;SDS011;36550;50.472;19.744;2023-01-30T16:24:05;49.80;;;21.90;;
50301;SDS011;36550;50.472;19.744;2023-01-30T16:27:05;33.70;;;16.50;;
50301;SDS011;36550;50.472;19.744;2023-01-30T16:29:51;32.50;;;16.20;;
50301;SDS011;36550;50.472;19.744;2023-01-30T16:32:40;41.90;;;17.20;;
50301;SDS011;36550;50.472;19.744;2023-01-30T16:41:28;49.10;;;21.10;;
50301;SDS011;36550;50.472;19.744;2023-01-30T16:44:17;64.30;;;24.20;;
50301;SDS011;36550;50.472;19.744;2023-01-30T16:47:03;77.20;;;26.60;;
50301;SDS011;36550;50.472;19.744;2023-01-30T16:52:36;51.20;;;19.50;;
50301;SDS011;36550;50.472;19.744;2023-01-30T16:55:27;79.60;;;29.00;;
50301;SDS011;36550;50.472;19.744;2023-01-30T16:58:11;43.20;;;16.80;;
50301;SDS011;36550;50.472;19.744;2023-01-30T17:01:00;30.00;;;14.90;;
50301;SDS011;36550;50.472;19.744;2023-01-30T17:03:51;27.60;;;12.40;;
50301;SDS011;36550;50.472;19.744;2023-01-30T17:06:42;27.00;;;13.50;;
50301;SDS011;36550;50.472;19.744;2023-01-30T17:17:57;26.20;;;12.80;;
50301;SDS011;36550;50.472;19.744;2023-01-30T17:20:41;27.50;;;13.20;;
50301;SDS011;36550;50.472;19.744;2023-01-30T17:23:30;30.20;;;13.90;;
50301;SDS011;36550;50.472;19.744;2023-01-30T17:26:14;27.50;;;13.10;;
50301;SDS011;36550;50.472;19.744;2023-01-30T17:28:58;27.20;;;13.50;;
50301;SDS011;36550;50.472;19.744;2023-01-30T17:31:46;29.10;;;13.30;;
50301;SDS011;36550;50.472;19.744;2023-01-30T17:34:32;23.60;;;12.50;;
50301;SDS011;36550;50.472;19.744;2023-01-30T17:37:17;30.50;;;13.90;;
50301;SDS011;36550;50.472;19.744;2023-01-30T17:40:18;31.20;;;16.50;;
50301;SDS011;36550;50.472;19.744;2023-01-30T17:43:06;30.60;;;15.40;;
50301;SDS011;36550;50.472;19.744;2023-01-30T17:45:51;29.50;;;14.90;;
50301;SDS011;36550;50.472;19.744;2023-01-30T17:48:35;32.20;;;15.60;;
50301;SDS011;36550;50.472;19.744;2023-01-30T17:51:19;35.30;;;15.70;;
50301;SDS011;36550;50.472;19.744;2023-01-30T17:54:03;31.90;;;16.10;;
50301;SDS011;36550;50.472;19.744;2023-01-30T17:56:50;39.40;;;19.20;;
50301;SDS011;36550;50.472;19.744;2023-01-30T17:59:35;38.10;;;18.80;;
50301;SDS011;36550;50.472;19.744;2023-01-30T18:02:19;43.40;;;21.00;;
50301;SDS011;36550;50.472;19.744;2023-01-30T18:05:03;45.30;;;22.70;;
50301;SDS011;36550;50.472;19.744;2023-01-30T18:07:48;42.00;;;21.10;;
50301;SDS011;36550;50.472;19.744;2023-01-30T18:10:32;34.70;;;17.30;;
50301;SDS011;36550;50.472;19.744;2023-01-30T18:13:16;41.80;;;18.20;;
50301;SDS011;36550;50.472;19.744;2023-01-30T18:16:00;41.30;;;20.30;;
50301;SDS011;36550;50.472;19.744;2023-01-30T18:18:46;35.70;;;18.10;;
50301;SDS011;36550;50.472;19.744;2023-01-30T18:21:30;34.60;;;16.90;;
50301;SDS011;36550;50.472;19.744;2023-01-30T18:24:16;34.40;;;15.90;;
50301;SDS011;36550;50.472;19.744;2023-01-30T18:27:00;36.00;;;17.10;;
50301;SDS011;36550;50.472;19.744;2023-01-30T18:29:44;33.70;;;15.40;;
50301;SDS011;36550;50.472;19.744;2023-01-30T18:32:28;32.80;;;16.70;;
50301;SDS011;36550;50.472;19.744;2023-01-30T18:35:12;39.00;;;18.30;;